sensor_id;sensor_type;location;lat;lon;timestamp;P1;durP1;ratioP1;P2;durP2;ratioP2
7941;SDS011;4016;50.758;7.150;2024-01-16T00:00:42;6.80;;;6.00;;
7941;SDS011;4016;50.758;7.150;2024-01-16T00:05:42;12.40;;;6.20;;
7941;SDS011;4016;50.758;7.150;2024-01-16T00:10:43;9.43;;;6.03;;
7941;SDS011;4016;50.758;7.150;2024-01-16T00:15:43;7.37;;;5.37;;
7941;SDS011;4016;50.758;7.150;2024-01-16T00:20:43;12.13;;;5.93;;
7941;SDS011;4016;50.758;7.150;2024-01-16T00:25:44;6.40;;;5.53;;
7941;SDS011;4016;50.758;7.150;2024-01-16T00:30:44;9.50;;;5.30;;
7941;SDS011;4016;50.758;7.150;2024-01-16T00:35:44;7.43;;;6.47;;
7941;SDS011;4016;50.758;7.150;2024-01-16T00:40:45;7.50;;;5.20;;
7941;SDS011;4016;50.758;7.150;2024-01-16T00:45:46;10.23;;;6.63;;
7941;SDS011;4016;50.758;7.150;2024-01-16T00:50:47;8.90;;;6.13;;
7941;SDS011;4016;50.758;7.150;2024-01-16T00:55:49;10.63;;;5.73;;
7941;SDS011;4016;50.758;7.150;2024-01-16T01:00:50;7.73;;;5.80;;
7941;SDS011;4016;50.758;7.150;2024-01-16T01:05:50;8.30;;;5.27;;
7941;SDS011;4016;50.758;7.150;2024-01-16T01:10:51;9.57;;;5.87;;
7941;SDS011;4016;50.758;7.150;2024-01-16T01:15:52;10.20;;;6.00;;
7941;SDS011;4016;50.758;7.150;2024-01-16T01:20:52;12.03;;;5.27;;
7941;SDS011;4016;50.758;7.150;2024-01-16T01:25:52;10.80;;;6.27;;
7941;SDS011;4016;50.758;7.150;2024-01-16T01:30:53;6.40;;;4.97;;
7941;SDS011;4016;50.758;7.150;2024-01-16T01:35:53;9.17;;;5.37;;
7941;SDS011;4016;50.758;7.150;2024-01-16T01:40:54;11.97;;;5.30;;
7941;SDS011;4016;50.758;7.150;2024-01-16T01:45:57;5.50;;;4.83;;
7941;SDS011;4016;50.758;7.150;2024-01-16T01:51:01;10.13;;;5.33;;
7941;SDS011;4016;50.758;7.150;2024-01-16T01:56:03;7.23;;;4.83;;
7941;SDS011;4016;50.758;7.150;2024-01-16T02:01:07;5.50;;;4.90;;
7941;SDS011;4016;50.758;7.150;2024-01-16T02:06:08;7.27;;;5.13;;
7941;SDS011;4016;50.758;7.150;2024-01-16T02:11:10;10.63;;;5.27;;
7941;SDS011;4016;50.758;7.150;2024-01-16T02:16:20;7.50;;;5.10;;
7941;SDS011;4016;50.758;7.150;2024-01-16T02:21:21;8.73;;;4.97;;
7941;SDS011;4016;50.758;7.150;2024-01-16T02:26:22;7.20;;;5.67;;
7941;SDS011;4016;50.758;7.150;2024-01-16T02:31:23;6.57;;;5.77;;
7941;SDS011;4016;50.758;7.150;2024-01-16T02:36:23;11.93;;;5.60;;
7941;SDS011;4016;50.758;7.150;2024-01-16T02:41:24;11.27;;;6.37;;
7941;SDS011;4016;50.758;7.150;2024-01-16T02:46:25;8.10;;;5.20;;
7941;SDS011;4016;50.758;7.150;2024-01-16T02:51:26;6.90;;;5.53;;
7941;SDS011;4016;50.758;7.150;2024-01-16T02:56:26;5.60;;;5.07;;
7941;SDS011;4016;50.758;7.150;2024-01-16T03:01:26;10.73;;;6.10;;
7941;SDS011;4016;50.758;7.150;2024-01-16T03:06:27;9.00;;;6.00;;
7941;SDS011;4016;50.758;7.150;2024-01-16T03:11:28;8.17;;;7.00;;
7941;SDS011;4016;50.758;7.150;2024-01-16T03:16:29;8.03;;;5.17;;
7941;SDS011;4016;50.758;7.150;2024-01-16T03:21:31;8.63;;;5.70;;
7941;SDS011;4016;50.758;7.150;2024-01-16T03:26:31;9.53;;;5.70;;
7941;SDS011;4016;50.758;7.150;2024-01-16T03:31:32;7.33;;;5.73;;
7941;SDS011;4016;50.758;7.150;2024-01-16T03:36:32;8.20;;;5.53;;
7941;SDS011;4016;50.758;7.150;2024-01-16T03:41:33;8.90;;;6.17;;
7941;SDS011;4016;50.758;7.150;2024-01-16T03:46:33;12.60;;;5.83;;
7941;SDS011;4016;50.758;7.150;2024-01-16T03:51:33;9.87;;;6.03;;
7941;SDS011;4016;50.758;7.150;2024-01-16T03:56:34;8.00;;;5.07;;
7941;SDS011;4016;50.758;7.150;2024-01-16T04:01:34;10.63;;;5.90;;
7941;SDS011;4016;50.758;7.150;2024-01-16T04:06:37;7.63;;;5.60;;
7941;SDS011;4016;50.758;7.150;2024-01-16T04:11:38;7.83;;;6.10;;
7941;SDS011;4016;50.758;7.150;2024-01-16T04:16:38;9.33;;;6.37;;
7941;SDS011;4016;50.758;7.150;2024-01-16T04:21:39;7.00;;;5.63;;
7941;SDS011;4016;50.758;7.150;2024-01-16T04:26:39;9.33;;;5.67;;
7941;SDS011;4016;50.758;7.150;2024-01-16T04:31:39;7.03;;;5.27;;
7941;SDS011;4016;50.758;7.150;2024-01-16T04:36:41;6.63;;;5.63;;
7941;SDS011;4016;50.758;7.150;2024-01-16T04:41:41;8.37;;;5.20;;
7941;SDS011;4016;50.758;7.150;2024-01-16T04:46:42;9.80;;;5.50;;
7941;SDS011;4016;50.758;7.150;2024-01-16T04:51:42;10.27;;;4.83;;
7941;SDS011;4016;50.758;7.150;2024-01-16T04:56:42;10.53;;;5.80;;
7941;SDS011;4016;50.758;7.150;2024-01-16T05:01:43;7.80;;;5.40;;
7941;SDS011;4016;50.758;7.150;2024-01-16T05:06:43;9.63;;;5.57;;
7941;SDS011;4016;50.758;7.150;2024-01-16T05:11:43;6.50;;;4.97;;
7941;SDS011;4016;50.758;7.150;2024-01-16T05:16:44;7.57;;;5.27;;
7941;SDS011;4016;50.758;7.150;2024-01-16T05:21:44;8.03;;;3.90;;
7941;SDS011;4016;50.758;7.150;2024-01-16T05:26:45;8.43;;;5.10;;
7941;SDS011;4016;50.758;7.150;2024-01-16T05:31:46;7.90;;;5.20;;
7941;SDS011;4016;50.758;7.150;2024-01-16T05:36:46;9.83;;;5.30;;
7941;SDS011;4016;50.758;7.150;2024-01-16T05:41:46;7.00;;;4.80;;
7941;SDS011;4016;50.758;7.150;2024-01-16T05:46:47;10.00;;;5.70;;
7941;SDS011;4016;50.758;7.150;2024-01-16T05:51:47;8.40;;;5.73;;
7941;SDS011;4016;50.758;7.150;2024-01-16T05:56:47;8.83;;;5.93;;
7941;SDS011;4016;50.758;7.150;2024-01-16T06:01:48;6.77;;;5.13;;
7941;SDS011;4016;50.758;7.150;2024-01-16T06:06:49;5.97;;;4.97;;
7941;SDS011;4016;50.758;7.150;2024-01-16T06:11:49;7.97;;;5.43;;
7941;SDS011;4016;50.758;7.150;2024-01-16T06:16:50;5.93;;;5.10;;
7941;SDS011;4016;50.758;7.150;2024-01-16T06:21:50;8.90;;;4.97;;
7941;SDS011;4016;50.758;7.150;2024-01-16T06:26:51;6.40;;;5.00;;
7941;SDS011;4016;50.758;7.150;2024-01-16T06:31:51;10.37;;;5.40;;
7941;SDS011;4016;50.758;7.150;2024-01-16T06:36:51;9.80;;;4.90;;
7941;SDS011;4016;50.758;7.150;2024-01-16T06:41:52;7.80;;;5.27;;
7941;SDS011;4016;50.758;7.150;2024-01-16T06:46:52;6.03;;;4.77;;
7941;SDS011;4016;50.758;7.150;2024-01-16T06:51:52;8.53;;;4.80;;
7941;SDS011;4016;50.758;7.150;2024-01-16T06:56:53;6.73;;;4.20;;
7941;SDS011;4016;50.758;7.150;2024-01-16T07:01:53;6.90;;;3.87;;
7941;SDS011;4016;50.758;7.150;2024-01-16T07:06:55;7.60;;;4.20;;
7941;SDS011;4016;50.758;7.150;2024-01-16T07:11:55;5.30;;;3.87;;
7941;SDS011;4016;50.758;7.150;2024-01-16T07:16:55;4.17;;;3.53;;
7941;SDS011;4016;50.758;7.150;2024-01-16T07:21:56;8.60;;;3.83;;
7941;SDS011;4016;50.758;7.150;2024-01-16T07:26:56;6.77;;;3.70;;
7941;SDS011;4016;50.758;7.150;2024-01-16T07:31:57;7.60;;;3.63;;
7941;SDS011;4016;50.758;7.150;2024-01-16T07:36:57;9.60;;;3.57;;
7941;SDS011;4016;50.758;7.150;2024-01-16T07:41:57;7.60;;;3.47;;
7941;SDS011;4016;50.758;7.150;2024-01-16T07:46:58;5.30;;;3.23;;
7941;SDS011;4016;50.758;7.150;2024-01-16T07:51:58;5.07;;;3.73;;
7941;SDS011;4016;50.758;7.150;2024-01-16T07:56:58;6.00;;;3.63;;
7941;SDS011;4016;50.758;7.150;2024-01-16T08:01:59;5.17;;;3.37;;
7941;SDS011;4016;50.758;7.150;2024-01-16T08:06:59;4.70;;;3.27;;
7941;SDS011;4016;50.758;7.150;2024-01-16T08:12:00;4.97;;;3.30;;
7941;SDS011;4016;50.758;7.150;2024-01-16T08:17:02;4.40;;;3.10;;
7941;SDS011;4016;50.758;7.150;2024-01-16T08:22:03;5.67;;;3.23;;
7941;SDS011;4016;50.758;7.150;2024-01-16T08:27:04;3.20;;;2.90;;
7941;SDS011;4016;50.758;7.150;2024-01-16T08:32:04;3.17;;;2.83;;
7941;SDS011;4016;50.758;7.150;2024-01-16T08:37:05;3.20;;;2.63;;
7941;SDS011;4016;50.758;7.150;2024-01-16T08:42:05;9.77;;;3.83;;
7941;SDS011;4016;50.758;7.150;2024-01-16T08:47:06;3.40;;;3.10;;
7941;SDS011;4016;50.758;7.150;2024-01-16T08:52:07;5.30;;;3.50;;
7941;SDS011;4016;50.758;7.150;2024-01-16T08:57:07;5.90;;;3.00;;
7941;SDS011;4016;50.758;7.150;2024-01-16T09:02:10;5.77;;;3.47;;
7941;SDS011;4016;50.758;7.150;2024-01-16T09:07:10;6.47;;;3.43;;
7941;SDS011;4016;50.758;7.150;2024-01-16T09:12:15;5.60;;;3.27;;
7941;SDS011;4016;50.758;7.150;2024-01-16T09:17:16;5.97;;;3.13;;
7941;SDS011;4016;50.758;7.150;2024-01-16T09:22:16;5.27;;;3.17;;
7941;SDS011;4016;50.758;7.150;2024-01-16T09:27:17;6.97;;;3.40;;
7941;SDS011;4016;50.758;7.150;2024-01-16T09:32:18;7.27;;;3.20;;
7941;SDS011;4016;50.758;7.150;2024-01-16T09:37:19;4.70;;;3.33;;
7941;SDS011;4016;50.758;7.150;2024-01-16T09:42:19;5.03;;;3.30;;
7941;SDS011;4016;50.758;7.150;2024-01-16T09:47:20;4.77;;;2.73;;
7941;SDS011;4016;50.758;7.150;2024-01-16T09:52:20;3.53;;;2.77;;
7941;SDS011;4016;50.758;7.150;2024-01-16T09:57:22;7.37;;;3.20;;
7941;SDS011;4016;50.758;7.150;2024-01-16T10:02:25;4.37;;;2.90;;
7941;SDS011;4016;50.758;7.150;2024-01-16T10:07:25;5.00;;;3.00;;
7941;SDS011;4016;50.758;7.150;2024-01-16T10:12:28;3.63;;;3.13;;
7941;SDS011;4016;50.758;7.150;2024-01-16T10:17:38;4.17;;;2.90;;
7941;SDS011;4016;50.758;7.150;2024-01-16T10:22:39;4.53;;;3.07;;
7941;SDS011;4016;50.758;7.150;2024-01-16T10:27:40;5.30;;;3.07;;
7941;SDS011;4016;50.758;7.150;2024-01-16T10:32:41;4.40;;;3.10;;
7941;SDS011;4016;50.758;7.150;2024-01-16T10:38:16;4.93;;;2.83;;
7941;SDS011;4016;50.758;7.150;2024-01-16T10:43:09;4.63;;;2.80;;
7941;SDS011;4016;50.758;7.150;2024-01-16T10:48:09;5.73;;;2.93;;
7941;SDS011;4016;50.758;7.150;2024-01-16T10:53:11;5.37;;;3.20;;
7941;SDS011;4016;50.758;7.150;2024-01-16T10:58:16;4.23;;;3.07;;
7941;SDS011;4016;50.758;7.150;2024-01-16T11:08:49;5.50;;;2.93;;
7941;SDS011;4016;50.758;7.150;2024-01-16T11:13:50;7.90;;;2.83;;
7941;SDS011;4016;50.758;7.150;2024-01-16T11:18:51;2.97;;;2.27;;
7941;SDS011;4016;50.758;7.150;2024-01-16T11:23:51;8.40;;;3.30;;
7941;SDS011;4016;50.758;7.150;2024-01-16T11:28:52;7.30;;;3.03;;
7941;SDS011;4016;50.758;7.150;2024-01-16T11:33:54;6.77;;;3.27;;
7941;SDS011;4016;50.758;7.150;2024-01-16T11:38:57;4.83;;;2.87;;
7941;SDS011;4016;50.758;7.150;2024-01-16T11:43:58;2.73;;;2.43;;
7941;SDS011;4016;50.758;7.150;2024-01-16T11:49:02;3.33;;;2.60;;
7941;SDS011;4016;50.758;7.150;2024-01-16T11:54:03;3.20;;;2.47;;
7941;SDS011;4016;50.758;7.150;2024-01-16T12:04:54;3.93;;;2.60;;
7941;SDS011;4016;50.758;7.150;2024-01-16T12:10:03;4.63;;;3.40;;
7941;SDS011;4016;50.758;7.150;2024-01-16T12:15:03;4.90;;;3.10;;
7941;SDS011;4016;50.758;7.150;2024-01-16T12:20:15;5.97;;;3.33;;
7941;SDS011;4016;50.758;7.150;2024-01-16T12:25:18;5.10;;;3.10;;
7941;SDS011;4016;50.758;7.150;2024-01-16T12:30:25;6.77;;;2.97;;
7941;SDS011;4016;50.758;7.150;2024-01-16T12:35:28;7.13;;;2.97;;
7941;SDS011;4016;50.758;7.150;2024-01-16T12:40:28;6.63;;;2.50;;
7941;SDS011;4016;50.758;7.150;2024-01-16T12:45:29;5.63;;;2.83;;
7941;SDS011;4016;50.758;7.150;2024-01-16T12:50:31;2.33;;;2.13;;
7941;SDS011;4016;50.758;7.150;2024-01-16T12:55:33;4.10;;;2.67;;
7941;SDS011;4016;50.758;7.150;2024-01-16T13:00:34;3.03;;;2.73;;
7941;SDS011;4016;50.758;7.150;2024-01-16T13:05:36;4.13;;;2.63;;
7941;SDS011;4016;50.758;7.150;2024-01-16T13:10:36;4.27;;;3.07;;
7941;SDS011;4016;50.758;7.150;2024-01-16T13:15:38;7.47;;;3.10;;
7941;SDS011;4016;50.758;7.150;2024-01-16T13:20:38;3.20;;;2.90;;
7941;SDS011;4016;50.758;7.150;2024-01-16T13:25:39;5.97;;;3.17;;
7941;SDS011;4016;50.758;7.150;2024-01-16T13:30:40;4.10;;;3.10;;
7941;SDS011;4016;50.758;7.150;2024-01-16T13:35:44;6.13;;;3.00;;
7941;SDS011;4016;50.758;7.150;2024-01-16T13:40:46;6.70;;;3.40;;
7941;SDS011;4016;50.758;7.150;2024-01-16T13:45:47;3.83;;;3.50;;
7941;SDS011;4016;50.758;7.150;2024-01-16T13:50:50;4.47;;;3.30;;
7941;SDS011;4016;50.758;7.150;2024-01-16T13:55:51;5.03;;;2.90;;
7941;SDS011;4016;50.758;7.150;2024-01-16T14:00:51;3.80;;;3.10;;
7941;SDS011;4016;50.758;7.150;2024-01-16T14:05:52;4.57;;;3.43;;
7941;SDS011;4016;50.758;7.150;2024-01-16T14:10:52;6.43;;;3.80;;
7941;SDS011;4016;50.758;7.150;2024-01-16T14:15:53;4.77;;;3.37;;
7941;SDS011;4016;50.758;7.150;2024-01-16T14:20:53;4.67;;;3.23;;
7941;SDS011;4016;50.758;7.150;2024-01-16T14:25:54;5.43;;;3.60;;
7941;SDS011;4016;50.758;7.150;2024-01-16T14:30:54;6.87;;;3.87;;
7941;SDS011;4016;50.758;7.150;2024-01-16T14:35:54;6.80;;;3.43;;
7941;SDS011;4016;50.758;7.150;2024-01-16T14:40:55;6.63;;;3.47;;
7941;SDS011;4016;50.758;7.150;2024-01-16T14:45:56;6.07;;;3.90;;
7941;SDS011;4016;50.758;7.150;2024-01-16T14:50:58;8.50;;;3.97;;
7941;SDS011;4016;50.758;7.150;2024-01-16T14:55:58;4.03;;;3.23;;
7941;SDS011;4016;50.758;7.150;2024-01-16T15:00:59;5.60;;;4.00;;
7941;SDS011;4016;50.758;7.150;2024-01-16T15:05:59;6.40;;;3.73;;
7941;SDS011;4016;50.758;7.150;2024-01-16T15:11:00;4.50;;;3.40;;
7941;SDS011;4016;50.758;7.150;2024-01-16T15:16:00;5.50;;;3.40;;
7941;SDS011;4016;50.758;7.150;2024-01-16T15:21:00;4.53;;;3.57;;
7941;SDS011;4016;50.758;7.150;2024-01-16T15:26:01;4.53;;;3.30;;
7941;SDS011;4016;50.758;7.150;2024-01-16T15:31:03;5.37;;;3.30;;
7941;SDS011;4016;50.758;7.150;2024-01-16T15:36:07;4.27;;;3.37;;
7941;SDS011;4016;50.758;7.150;2024-01-16T15:41:07;6.00;;;3.60;;
7941;SDS011;4016;50.758;7.150;2024-01-16T15:46:07;4.27;;;3.47;;
7941;SDS011;4016;50.758;7.150;2024-01-16T15:51:08;6.37;;;3.80;;
7941;SDS011;4016;50.758;7.150;2024-01-16T15:56:08;7.17;;;3.50;;
7941;SDS011;4016;50.758;7.150;2024-01-16T16:01:09;5.37;;;3.53;;
7941;SDS011;4016;50.758;7.150;2024-01-16T16:06:09;5.60;;;3.13;;
7941;SDS011;4016;50.758;7.150;2024-01-16T16:11:09;6.27;;;3.40;;
7941;SDS011;4016;50.758;7.150;2024-01-16T16:16:10;5.77;;;3.80;;
7941;SDS011;4016;50.758;7.150;2024-01-16T16:21:11;5.63;;;3.73;;
7941;SDS011;4016;50.758;7.150;2024-01-16T16:26:11;6.00;;;4.10;;
7941;SDS011;4016;50.758;7.150;2024-01-16T16:31:12;5.27;;;4.03;;
7941;SDS011;4016;50.758;7.150;2024-01-16T16:36:12;6.23;;;4.30;;
7941;SDS011;4016;50.758;7.150;2024-01-16T16:41:12;5.03;;;3.30;;
7941;SDS011;4016;50.758;7.150;2024-01-16T16:46:14;5.73;;;4.37;;
7941;SDS011;4016;50.758;7.150;2024-01-16T16:51:18;7.10;;;4.73;;
7941;SDS011;4016;50.758;7.150;2024-01-16T16:56:20;8.33;;;5.47;;
7941;SDS011;4016;50.758;7.150;2024-01-16T17:01:20;9.13;;;6.17;;
7941;SDS011;4016;50.758;7.150;2024-01-16T17:06:21;8.43;;;6.37;;
7941;SDS011;4016;50.758;7.150;2024-01-16T17:11:21;10.00;;;5.83;;
7941;SDS011;4016;50.758;7.150;2024-01-16T17:16:22;9.07;;;5.73;;
7941;SDS011;4016;50.758;7.150;2024-01-16T17:21:24;6.63;;;5.00;;
7941;SDS011;4016;50.758;7.150;2024-01-16T17:26:25;5.93;;;4.87;;
7941;SDS011;4016;50.758;7.150;2024-01-16T17:31:26;7.27;;;5.37;;
7941;SDS011;4016;50.758;7.150;2024-01-16T17:36:27;7.17;;;4.87;;
7941;SDS011;4016;50.758;7.150;2024-01-16T17:41:28;5.70;;;4.90;;
7941;SDS011;4016;50.758;7.150;2024-01-16T17:46:28;8.73;;;4.73;;
7941;SDS011;4016;50.758;7.150;2024-01-16T17:51:29;6.50;;;4.83;;
7941;SDS011;4016;50.758;7.150;2024-01-16T17:56:30;5.30;;;4.80;;
7941;SDS011;4016;50.758;7.150;2024-01-16T18:01:30;8.17;;;5.37;;
7941;SDS011;4016;50.758;7.150;2024-01-16T18:06:32;7.80;;;5.30;;
7941;SDS011;4016;50.758;7.150;2024-01-16T18:11:50;9.63;;;5.47;;
7941;SDS011;4016;50.758;7.150;2024-01-16T18:16:51;6.07;;;4.57;;
7941;SDS011;4016;50.758;7.150;2024-01-16T18:21:52;5.67;;;4.87;;
7941;SDS011;4016;50.758;7.150;2024-01-16T18:26:55;7.50;;;4.87;;
7941;SDS011;4016;50.758;7.150;2024-01-16T18:31:55;9.47;;;5.00;;
7941;SDS011;4016;50.758;7.150;2024-01-16T18:37:00;6.83;;;4.23;;
7941;SDS011;4016;50.758;7.150;2024-01-16T18:42:01;5.73;;;4.23;;
7941;SDS011;4016;50.758;7.150;2024-01-16T18:47:02;5.97;;;4.60;;
7941;SDS011;4016;50.758;7.150;2024-01-16T18:52:03;6.73;;;4.60;;
7941;SDS011;4016;50.758;7.150;2024-01-16T18:57:04;6.93;;;4.10;;
7941;SDS011;4016;50.758;7.150;2024-01-16T19:02:04;5.40;;;4.50;;
7941;SDS011;4016;50.758;7.150;2024-01-16T19:07:05;6.97;;;4.77;;
7941;SDS011;4016;50.758;7.150;2024-01-16T19:12:11;5.23;;;4.57;;
7941;SDS011;4016;50.758;7.150;2024-01-16T19:17:17;4.40;;;3.83;;
7941;SDS011;4016;50.758;7.150;2024-01-16T19:22:18;5.47;;;4.47;;
7941;SDS011;4016;50.758;7.150;2024-01-16T19:27:20;6.67;;;4.40;;
7941;SDS011;4016;50.758;7.150;2024-01-16T19:32:21;8.83;;;5.00;;
7941;SDS011;4016;50.758;7.150;2024-01-16T19:37:21;8.07;;;4.73;;
7941;SDS011;4016;50.758;7.150;2024-01-16T19:42:21;6.43;;;5.30;;
7941;SDS011;4016;50.758;7.150;2024-01-16T19:47:23;8.30;;;6.07;;
7941;SDS011;4016;50.758;7.150;2024-01-16T19:52:23;6.67;;;5.70;;
7941;SDS011;4016;50.758;7.150;2024-01-16T19:57:24;6.27;;;5.70;;
7941;SDS011;4016;50.758;7.150;2024-01-16T20:02:25;6.47;;;5.40;;
7941;SDS011;4016;50.758;7.150;2024-01-16T20:07:25;7.63;;;5.30;;
7941;SDS011;4016;50.758;7.150;2024-01-16T20:12:25;9.60;;;6.53;;
7941;SDS011;4016;50.758;7.150;2024-01-16T20:17:26;6.80;;;6.07;;
7941;SDS011;4016;50.758;7.150;2024-01-16T20:22:26;9.20;;;6.60;;
7941;SDS011;4016;50.758;7.150;2024-01-16T20:27:29;7.33;;;6.00;;
7941;SDS011;4016;50.758;7.150;2024-01-16T20:32:29;7.77;;;5.93;;
7941;SDS011;4016;50.758;7.150;2024-01-16T20:37:29;10.50;;;6.40;;
7941;SDS011;4016;50.758;7.150;2024-01-16T20:42:30;7.60;;;6.27;;
7941;SDS011;4016;50.758;7.150;2024-01-16T20:47:31;7.17;;;5.30;;
7941;SDS011;4016;50.758;7.150;2024-01-16T20:52:32;11.50;;;5.37;;
7941;SDS011;4016;50.758;7.150;2024-01-16T20:57:33;8.00;;;6.50;;
7941;SDS011;4016;50.758;7.150;2024-01-16T21:02:34;7.83;;;5.93;;
7941;SDS011;4016;50.758;7.150;2024-01-16T21:07:35;12.00;;;6.57;;
7941;SDS011;4016;50.758;7.150;2024-01-16T21:12:35;8.80;;;6.33;;
7941;SDS011;4016;50.758;7.150;2024-01-16T21:17:35;10.47;;;6.50;;
7941;SDS011;4016;50.758;7.150;2024-01-16T21:22:36;7.37;;;5.80;;
7941;SDS011;4016;50.758;7.150;2024-01-16T21:27:36;11.90;;;6.73;;
7941;SDS011;4016;50.758;7.150;2024-01-16T21:32:37;8.90;;;6.70;;
7941;SDS011;4016;50.758;7.150;2024-01-16T21:37:38;8.40;;;6.73;;
7941;SDS011;4016;50.758;7.150;2024-01-16T21:42:39;6.97;;;6.03;;
7941;SDS011;4016;50.758;7.150;2024-01-16T21:47:40;8.73;;;6.70;;
7941;SDS011;4016;50.758;7.150;2024-01-16T21:52:40;6.47;;;5.87;;
7941;SDS011;4016;50.758;7.150;2024-01-16T21:57:41;8.23;;;6.37;;
7941;SDS011;4016;50.758;7.150;2024-01-16T22:02:42;9.80;;;6.47;;
7941;SDS011;4016;50.758;7.150;2024-01-16T22:07:43;6.83;;;5.83;;
7941;SDS011;4016;50.758;7.150;2024-01-16T22:12:43;13.23;;;7.73;;
7941;SDS011;4016;50.758;7.150;2024-01-16T22:17:43;8.83;;;6.43;;
7941;SDS011;4016;50.758;7.150;2024-01-16T22:22:46;10.07;;;6.60;;
7941;SDS011;4016;50.758;7.150;2024-01-16T22:27:47;9.27;;;6.53;;
7941;SDS011;4016;50.758;7.150;2024-01-16T22:32:47;7.67;;;6.17;;
7941;SDS011;4016;50.758;7.150;2024-01-16T22:37:48;7.77;;;5.97;;
7941;SDS011;4016;50.758;7.150;2024-01-16T22:42:49;10.70;;;6.50;;
7941;SDS011;4016;50.758;7.150;2024-01-16T22:47:49;12.27;;;6.47;;
7941;SDS011;4016;50.758;7.150;2024-01-16T22:52:51;8.83;;;6.57;;
7941;SDS011;4016;50.758;7.150;2024-01-16T22:57:51;12.83;;;7.20;;
7941;SDS011;4016;50.758;7.150;2024-01-16T23:02:52;9.70;;;6.20;;
7941;SDS011;4016;50.758;7.150;2024-01-16T23:07:52;8.07;;;6.30;;
7941;SDS011;4016;50.758;7.150;2024-01-16T23:12:53;7.00;;;5.80;;
7941;SDS011;4016;50.758;7.150;2024-01-16T23:17:53;6.70;;;5.97;;
7941;SDS011;4016;50.758;7.150;2024-01-16T23:22:54;9.83;;;6.50;;
7941;SDS011;4016;50.758;7.150;2024-01-16T23:27:55;14.37;;;6.23;;
7941;SDS011;4016;50.758;7.150;2024-01-16T23:32:56;7.83;;;5.80;;
7941;SDS011;4016;50.758;7.150;2024-01-16T23:37:56;8.53;;;6.57;;
7941;SDS011;4016;50.758;7.150;2024-01-16T23:42:59;8.07;;;5.73;;
7941;SDS011;4016;50.758;7.150;2024-01-16T23:48:00;7.27;;;5.60;;
7941;SDS011;4016;50.758;7.150;2024-01-16T23:53:00;9.70;;;6.80;;
7941;SDS011;4016;50.758;7.150;2024-01-16T23:58:01;9.10;;;5.90;;
